createdAt,value
2022-11-02T00:00:42.629Z,8.12
2022-11-02T00:01:37.779Z,8.17
2022-11-02T00:02:32.937Z,8.20
2022-11-02T00:03:27.931Z,8.19
2022-11-02T00:04:23.064Z,8.17
2022-11-02T00:05:18.092Z,8.14
2022-11-02T00:06:13.340Z,8.10
2022-11-02T00:07:08.428Z,8.03
2022-11-02T00:08:03.672Z,8.01
2022-11-02T00:08:58.567Z,8.00
2022-11-02T00:09:53.588Z,8.01
2022-11-02T00:10:48.707Z,8.00
2022-11-02T00:11:43.932Z,7.95
2022-11-02T00:12:38.957Z,7.92
2022-11-02T00:13:34.819Z,7.90
2022-11-02T00:14:29.965Z,7.89
2022-11-02T00:15:25.125Z,7.89
2022-11-02T00:16:21.015Z,7.91
2022-11-02T00:17:16.321Z,7.91
2022-11-02T00:18:12.151Z,7.88
2022-11-02T00:19:07.301Z,7.85
2022-11-02T00:20:02.617Z,7.84
2022-11-02T00:20:58.352Z,7.89
2022-11-02T00:21:53.665Z,7.91
2022-11-02T00:22:48.981Z,7.85
2022-11-02T00:23:45.243Z,7.81
2022-11-02T00:24:40.532Z,7.78
2022-11-02T00:25:36.405Z,7.75
2022-11-02T00:26:31.663Z,7.75
2022-11-02T00:27:26.950Z,7.74
2022-11-02T00:28:22.709Z,7.73
2022-11-02T00:29:17.883Z,7.69
2022-11-02T00:30:13.745Z,7.63
2022-11-02T00:31:08.993Z,7.58
2022-11-02T00:32:04.420Z,7.57
2022-11-02T00:33:00.575Z,7.53
2022-11-02T00:33:55.418Z,7.46
2022-11-02T00:34:50.587Z,7.42
2022-11-02T00:35:47.106Z,7.43
2022-11-02T00:36:42.465Z,7.44
2022-11-02T00:37:38.164Z,7.45
2022-11-02T00:38:33.659Z,7.45
2022-11-02T00:39:28.506Z,7.41
2022-11-02T00:40:24.245Z,7.37
2022-11-02T00:41:19.421Z,7.37
2022-11-02T00:42:15.261Z,7.39
2022-11-02T00:43:10.548Z,7.40
2022-11-02T00:44:05.815Z,7.42
2022-11-02T00:45:01.516Z,7.51
2022-11-02T00:45:56.696Z,7.59
2022-11-02T00:46:51.949Z,7.66
2022-11-02T00:47:48.348Z,7.78
2022-11-02T00:48:43.576Z,7.82
2022-11-02T00:49:39.280Z,7.81
2022-11-02T00:50:34.497Z,7.80
2022-11-02T00:51:29.639Z,7.78
2022-11-02T00:52:25.507Z,7.77
2022-11-02T00:53:20.840Z,7.77
2022-11-02T00:54:16.684Z,7.79
2022-11-02T00:55:11.691Z,7.76
2022-11-02T00:56:06.989Z,7.74
2022-11-02T00:57:02.848Z,7.64
2022-11-02T00:57:58.196Z,7.56
2022-11-02T00:58:53.447Z,7.53
2022-11-02T00:59:49.856Z,7.52
2022-11-02T01:00:45.157Z,7.57
2022-11-02T01:01:41.152Z,7.63
2022-11-02T01:02:36.463Z,7.71
2022-11-02T01:03:31.565Z,7.82
2022-11-02T01:04:27.316Z,7.90
2022-11-02T01:05:22.606Z,7.96
2022-11-02T01:06:17.734Z,8.00
2022-11-02T01:07:12.964Z,8.03
2022-11-02T01:08:08.965Z,8.00
2022-11-02T01:09:04.003Z,8.01
2022-11-02T01:09:59.244Z,8.02
2022-11-02T01:10:55.632Z,7.98
2022-11-02T01:11:50.742Z,7.96
2022-11-02T01:12:46.604Z,7.94
2022-11-02T01:13:41.665Z,7.92
2022-11-02T01:14:37.031Z,7.90
2022-11-02T01:15:32.771Z,7.88
2022-11-02T01:16:27.873Z,7.88
2022-11-02T01:17:23.690Z,7.86
2022-11-02T01:18:18.778Z,7.79
2022-11-02T01:19:14.150Z,7.75
2022-11-02T01:20:09.844Z,7.72
2022-11-02T01:21:04.955Z,7.70
2022-11-02T01:22:00.076Z,7.69
2022-11-02T01:22:56.532Z,7.60
2022-11-02T01:23:51.579Z,7.57
2022-11-02T01:24:46.659Z,7.53
2022-11-02T01:25:41.880Z,7.55
2022-11-02T01:26:37.515Z,7.57
2022-11-02T01:27:32.244Z,7.56
2022-11-02T01:28:28.134Z,7.59
2022-11-02T01:29:23.215Z,7.67
2022-11-02T01:30:18.568Z,7.66
2022-11-02T01:31:14.094Z,7.59
2022-11-02T01:32:10.127Z,7.57
2022-11-02T01:33:05.321Z,7.59
2022-11-02T01:34:00.452Z,7.56
2022-11-02T01:34:59.855Z,7.53
2022-11-02T01:35:55.052Z,7.50
2022-11-02T01:36:50.476Z,7.48
2022-11-02T01:37:45.436Z,7.47
2022-11-02T01:38:40.548Z,7.46
2022-11-02T01:39:35.604Z,7.40
2022-11-02T01:40:30.712Z,7.36
2022-11-02T01:41:25.813Z,7.32
2022-11-02T01:42:20.809Z,7.29
2022-11-02T01:43:15.869Z,7.32
2022-11-02T01:44:10.981Z,7.28
2022-11-02T01:45:06.082Z,7.28
2022-11-02T01:46:01.152Z,7.27
2022-11-02T01:46:56.319Z,7.26
2022-11-02T01:47:51.268Z,7.25
2022-11-02T01:48:46.469Z,7.27
2022-11-02T01:49:41.547Z,7.29
2022-11-02T01:50:36.747Z,7.29
2022-11-02T01:51:31.780Z,7.28
2022-11-02T01:52:26.847Z,7.27
2022-11-02T01:53:21.942Z,7.24
2022-11-02T01:54:16.926Z,7.19
2022-11-02T01:55:11.994Z,7.14
2022-11-02T01:56:07.105Z,7.13
2022-11-02T01:57:02.074Z,7.13
2022-11-02T01:57:57.159Z,7.09
2022-11-02T01:58:52.244Z,7.07
2022-11-02T01:59:47.311Z,7.03
2022-11-02T02:00:42.404Z,6.96
2022-11-02T02:01:37.643Z,6.89
2022-11-02T02:02:32.793Z,6.85
2022-11-02T02:03:27.586Z,6.85
2022-11-02T02:04:22.675Z,6.84
2022-11-02T02:05:17.740Z,6.76
2022-11-02T02:06:12.825Z,6.71
2022-11-02T02:07:07.923Z,6.68
2022-11-02T02:08:03.272Z,6.63
2022-11-02T02:08:57.991Z,6.63
2022-11-02T02:09:53.200Z,6.65
2022-11-02T02:10:49.149Z,6.65
2022-11-02T02:11:49.114Z,6.66
2022-11-02T02:12:44.503Z,6.69
2022-11-02T02:13:39.586Z,6.73
2022-11-02T02:14:35.247Z,6.80
2022-11-02T02:15:30.481Z,6.81
2022-11-02T02:16:28.787Z,6.77
2022-11-02T02:17:23.041Z,6.72
2022-11-02T02:18:17.069Z,6.71
2022-11-02T02:19:12.834Z,6.85
2022-11-02T02:20:08.027Z,6.94
2022-11-02T02:21:03.133Z,6.95
2022-11-02T02:21:58.927Z,6.96
2022-11-02T02:22:54.084Z,6.97
2022-11-02T02:23:49.854Z,6.95
2022-11-02T02:24:45.061Z,6.91
2022-11-02T02:25:40.312Z,6.88
2022-11-02T02:26:36.104Z,6.81
2022-11-02T02:27:31.221Z,6.76
2022-11-02T02:28:26.712Z,6.68
2022-11-02T02:29:22.761Z,6.61
2022-11-02T02:30:18.000Z,6.57
2022-11-02T02:31:13.789Z,6.54
2022-11-02T02:32:09.161Z,6.50
2022-11-02T02:33:04.279Z,6.45
2022-11-02T02:34:00.080Z,6.43
2022-11-02T02:34:55.318Z,6.41
2022-11-02T02:35:51.220Z,6.39
2022-11-02T02:37:41.768Z,6.32
2022-11-02T02:38:37.310Z,6.29
2022-11-02T02:39:32.528Z,6.25
2022-11-02T02:40:27.866Z,6.19
2022-11-02T02:41:23.937Z,6.12
2022-11-02T02:42:19.158Z,6.08
2022-11-02T02:43:15.152Z,6.10
2022-11-02T02:44:10.097Z,6.13
2022-11-02T02:45:05.489Z,6.14
2022-11-02T02:46:01.134Z,6.16
2022-11-02T02:46:56.503Z,6.21
2022-11-02T02:47:52.327Z,6.28
2022-11-02T02:48:47.253Z,6.31
2022-11-02T02:49:42.765Z,6.34
2022-11-02T02:50:38.429Z,6.41
2022-11-02T02:51:33.667Z,6.45
2022-11-02T02:52:28.836Z,6.47
2022-11-02T02:53:25.140Z,6.47
2022-11-02T02:54:20.397Z,6.44
2022-11-02T02:55:16.182Z,6.42
2022-11-02T02:56:11.419Z,6.41
2022-11-02T02:57:06.553Z,6.40
2022-11-02T02:58:02.796Z,6.39
2022-11-02T02:58:57.585Z,6.39
2022-11-02T02:59:53.488Z,6.40
2022-11-02T03:00:48.686Z,6.39
2022-11-02T03:01:44.017Z,6.36
2022-11-02T03:02:39.930Z,6.35
2022-11-02T03:03:34.927Z,6.37
2022-11-02T03:04:30.425Z,6.45
2022-11-02T03:05:26.363Z,6.52
2022-11-02T03:06:21.591Z,6.55
2022-11-02T03:07:17.375Z,6.52
2022-11-02T03:08:12.465Z,6.48
2022-11-02T03:09:07.561Z,6.42
2022-11-02T03:10:03.416Z,6.36
2022-11-02T03:10:58.515Z,6.32
2022-11-02T03:11:53.726Z,6.30
2022-11-02T03:12:48.815Z,6.30
2022-11-02T03:13:44.751Z,6.26
2022-11-02T03:14:39.990Z,6.25
2022-11-02T03:15:35.298Z,6.23
2022-11-02T03:16:31.480Z,6.21
2022-11-02T03:17:26.751Z,6.19
2022-11-02T03:18:22.533Z,6.18
2022-11-02T03:19:17.741Z,6.17
2022-11-02T03:20:12.885Z,6.17
2022-11-02T03:21:08.743Z,6.20
2022-11-02T03:22:03.857Z,6.24
2022-11-02T03:22:59.613Z,6.27
2022-11-02T03:23:54.829Z,6.24
2022-11-02T03:24:50.078Z,6.22
2022-11-02T03:25:46.004Z,6.20
2022-11-02T03:26:40.987Z,6.23
2022-11-02T03:27:36.188Z,6.25
2022-11-02T03:28:32.524Z,6.22
2022-11-02T03:29:27.732Z,6.24
2022-11-02T03:30:22.933Z,6.23
2022-11-02T03:31:18.137Z,6.22
2022-11-02T03:32:13.199Z,6.23
2022-11-02T03:33:08.426Z,6.19
2022-11-02T03:34:04.212Z,6.19
2022-11-02T03:34:59.403Z,6.18
2022-11-02T03:35:54.765Z,6.17
2022-11-02T03:36:50.013Z,6.14
2022-11-02T03:37:46.329Z,6.12
2022-11-02T03:38:41.652Z,6.10
2022-11-02T03:39:36.655Z,6.11
2022-11-02T03:40:35.904Z,6.11
2022-11-02T03:41:31.174Z,6.12
2022-11-02T03:42:26.298Z,6.17
2022-11-02T03:43:21.514Z,6.18
2022-11-02T03:44:16.581Z,6.17
2022-11-02T03:45:11.660Z,6.18
2022-11-02T03:46:06.782Z,6.19
2022-11-02T03:47:01.870Z,6.16
2022-11-02T03:47:56.843Z,6.13
2022-11-02T03:48:51.914Z,6.10
2022-11-02T03:49:47.032Z,6.07
2022-11-02T03:50:42.137Z,6.06
2022-11-02T03:51:37.118Z,6.03
2022-11-02T03:52:32.228Z,6.03
2022-11-02T03:53:27.320Z,6.01
2022-11-02T03:54:22.375Z,6.01
2022-11-02T03:55:17.455Z,6.00
2022-11-02T03:56:12.685Z,5.99
2022-11-02T03:57:07.624Z,5.98
2022-11-02T03:58:02.922Z,6.03
2022-11-02T03:58:57.862Z,6.07
2022-11-02T03:59:53.255Z,6.08
2022-11-02T04:00:48.499Z,6.05
2022-11-02T04:01:43.818Z,6.05
2022-11-02T04:02:38.882Z,6.06
2022-11-02T04:03:33.899Z,6.07
2022-11-02T04:04:28.986Z,6.09
2022-11-02T04:05:24.217Z,6.12
2022-11-02T04:06:19.316Z,6.13
2022-11-02T04:07:14.409Z,6.12
2022-11-02T04:08:09.609Z,6.12
2022-11-02T04:09:04.811Z,6.14
2022-11-02T04:09:59.930Z,6.17
2022-11-02T04:10:55.301Z,6.19
2022-11-02T04:11:50.371Z,6.19
2022-11-02T04:12:45.458Z,6.17
2022-11-02T04:13:40.596Z,6.15
2022-11-02T04:14:35.698Z,6.14
2022-11-02T04:15:30.889Z,6.11
2022-11-02T04:16:28.354Z,6.04
2022-11-02T04:17:23.465Z,5.99
2022-11-02T04:18:18.644Z,5.95
2022-11-02T04:19:13.836Z,5.93
2022-11-02T04:20:09.111Z,5.93
2022-11-02T04:21:04.611Z,5.95
2022-11-02T04:21:59.444Z,5.95
2022-11-02T04:22:54.512Z,5.95
2022-11-02T04:23:49.577Z,5.94
2022-11-02T04:24:44.658Z,5.96
2022-11-02T04:25:39.723Z,6.00
2022-11-02T04:26:35.007Z,6.02
2022-11-02T04:27:29.919Z,6.06
2022-11-02T04:28:24.990Z,6.08
2022-11-02T04:29:20.539Z,6.11
2022-11-02T04:30:15.592Z,6.11
2022-11-02T04:31:10.674Z,6.14
2022-11-02T04:32:05.823Z,6.18
2022-11-02T04:33:00.877Z,6.25
2022-11-02T04:33:55.933Z,6.27
2022-11-02T04:34:51.036Z,6.28
2022-11-02T04:35:46.018Z,6.27
2022-11-02T04:36:41.134Z,6.28
2022-11-02T04:37:36.199Z,6.29
2022-11-02T04:38:31.296Z,6.29
2022-11-02T04:39:26.397Z,6.27
2022-11-02T04:40:21.769Z,6.27
2022-11-02T04:41:16.573Z,6.28
2022-11-02T04:42:11.687Z,6.28
2022-11-02T04:43:06.796Z,6.29
2022-11-02T04:44:04.469Z,6.29
2022-11-02T04:44:59.542Z,6.30
2022-11-02T04:45:54.697Z,6.31
2022-11-02T04:46:49.705Z,6.32
2022-11-02T04:47:44.832Z,6.36
2022-11-02T04:48:39.918Z,6.38
2022-11-02T04:49:35.017Z,6.37
2022-11-02T04:50:30.417Z,6.35
2022-11-02T04:51:25.160Z,6.34
2022-11-02T04:52:20.224Z,6.33
2022-11-02T04:53:15.263Z,6.31
2022-11-02T04:54:10.392Z,6.30
2022-11-02T04:55:05.393Z,6.29
2022-11-02T04:56:04.814Z,6.28
2022-11-02T04:56:59.892Z,6.26
2022-11-02T04:57:55.038Z,6.24
2022-11-02T04:58:50.278Z,6.23
2022-11-02T04:59:45.287Z,6.22
2022-11-02T05:00:40.475Z,6.23
2022-11-02T05:01:35.585Z,6.24
2022-11-02T05:02:30.642Z,6.24
2022-11-02T05:03:25.527Z,6.23
2022-11-02T05:04:20.639Z,6.20
2022-11-02T05:05:15.969Z,6.17
2022-11-02T05:06:10.697Z,6.12
2022-11-02T05:07:05.675Z,6.07
2022-11-02T05:08:00.801Z,6.05
2022-11-02T05:08:55.854Z,6.04
2022-11-02T05:09:51.656Z,6.04
2022-11-02T05:10:46.865Z,6.04
2022-11-02T05:11:42.632Z,6.06
2022-11-02T05:12:37.834Z,6.06
2022-11-02T05:13:33.092Z,6.08
2022-11-02T05:14:28.907Z,6.09
2022-11-02T05:15:24.180Z,6.10
2022-11-02T05:16:19.257Z,6.09
2022-11-02T05:17:15.614Z,6.11
2022-11-02T05:18:14.802Z,6.13
2022-11-02T05:19:10.024Z,6.19
2022-11-02T05:20:02.046Z,6.26
2022-11-02T05:20:57.231Z,6.31
2022-11-02T05:21:52.931Z,6.35
2022-11-02T05:22:48.198Z,6.36
2022-11-02T05:23:44.107Z,6.38
2022-11-02T05:24:39.285Z,6.36
2022-11-02T05:25:34.534Z,6.40
2022-11-02T05:26:30.337Z,6.44
2022-11-02T05:27:25.580Z,6.48
2022-11-02T05:28:20.938Z,6.50
2022-11-02T05:29:17.038Z,6.50
2022-11-02T05:30:12.377Z,6.52
2022-11-02T05:31:08.052Z,6.55
2022-11-02T05:32:03.144Z,6.58
2022-11-02T05:32:58.517Z,6.58
2022-11-02T05:33:54.221Z,6.55
2022-11-02T05:34:49.539Z,6.52
2022-11-02T05:35:45.322Z,6.49
2022-11-02T05:36:40.529Z,6.46
2022-11-02T05:37:35.832Z,6.42
2022-11-02T05:38:31.568Z,6.40
2022-11-02T05:39:26.737Z,6.38
2022-11-02T05:40:21.852Z,6.37
2022-11-02T05:41:18.361Z,6.34
2022-11-02T05:42:13.662Z,6.32
2022-11-02T05:43:09.082Z,6.30
2022-11-02T05:44:03.877Z,6.28
2022-11-02T05:44:59.094Z,6.27
2022-11-02T05:45:54.160Z,6.27
2022-11-02T05:46:49.180Z,6.29
2022-11-02T05:47:44.492Z,6.33
2022-11-02T05:48:39.338Z,6.32
2022-11-02T05:49:34.307Z,6.34
2022-11-02T05:50:29.407Z,6.36
2022-11-02T05:51:24.408Z,6.38
2022-11-02T05:52:19.661Z,6.43
2022-11-02T05:53:14.470Z,6.45
2022-11-02T05:54:09.574Z,6.46
2022-11-02T05:55:04.786Z,6.47
2022-11-02T05:55:59.764Z,6.48
2022-11-02T05:56:58.206Z,6.52
2022-11-02T05:57:53.625Z,6.50
2022-11-02T05:58:48.346Z,6.43
2022-11-02T05:59:46.676Z,6.35
2022-11-02T06:00:39.454Z,6.31
2022-11-02T06:01:33.679Z,6.29
2022-11-02T06:02:28.560Z,6.26
2022-11-02T06:03:24.015Z,6.25
2022-11-02T06:04:18.796Z,6.23
2022-11-02T06:05:13.944Z,6.24
2022-11-02T06:06:08.971Z,6.24
2022-11-02T06:07:04.095Z,6.27
2022-11-02T06:07:59.105Z,6.31
2022-11-02T06:08:54.561Z,6.34
2022-11-02T06:09:49.618Z,6.32
2022-11-02T06:10:44.721Z,6.34
2022-11-02T06:11:39.776Z,6.33
2022-11-02T06:12:34.877Z,6.35
2022-11-02T06:13:29.868Z,6.40
2022-11-02T06:14:28.451Z,6.43
2022-11-02T06:15:23.508Z,6.45
2022-11-02T06:16:22.704Z,6.47
2022-11-02T06:17:13.557Z,6.46
2022-11-02T06:18:08.577Z,6.48
2022-11-02T06:19:03.791Z,6.52
2022-11-02T06:19:58.693Z,6.56
2022-11-02T06:20:53.690Z,6.58
2022-11-02T06:21:48.813Z,6.60
2022-11-02T06:22:43.779Z,6.63
2022-11-02T06:23:38.803Z,6.68
2022-11-02T06:24:33.833Z,6.72
2022-11-02T06:25:28.834Z,6.79
2022-11-02T06:26:23.875Z,6.84
2022-11-02T06:27:18.996Z,6.87
2022-11-02T06:28:14.072Z,6.86
2022-11-02T06:29:09.071Z,6.88
2022-11-02T06:30:04.241Z,6.86
2022-11-02T06:30:59.305Z,6.88
2022-11-02T06:31:54.281Z,6.93
2022-11-02T06:32:49.467Z,6.94
2022-11-02T06:33:44.479Z,6.93
2022-11-02T06:34:39.580Z,6.90
2022-11-02T06:35:34.697Z,6.89
2022-11-02T06:36:29.797Z,6.86
2022-11-02T06:37:24.874Z,6.85
2022-11-02T06:38:19.880Z,6.83
2022-11-02T06:39:14.977Z,6.81
2022-11-02T06:40:10.298Z,6.82
2022-11-02T06:41:05.683Z,6.83
2022-11-02T06:42:01.010Z,6.85
2022-11-02T06:43:14.864Z,6.90
2022-11-02T06:43:52.732Z,6.90
2022-11-02T06:44:47.174Z,6.92
2022-11-02T06:45:42.625Z,6.97
2022-11-02T06:46:38.024Z,7.00
2022-11-02T06:47:33.123Z,7.01
2022-11-02T06:48:34.360Z,7.07
2022-11-02T06:49:24.328Z,7.09
2022-11-02T06:50:18.381Z,7.10
2022-11-02T06:51:13.534Z,7.13
2022-11-02T06:52:08.615Z,7.18
2022-11-02T06:53:03.873Z,7.30
2022-11-02T06:54:01.250Z,7.37
2022-11-02T06:54:56.030Z,7.46
2022-11-02T06:55:50.532Z,7.56
2022-11-02T06:56:46.219Z,7.63
2022-11-02T06:57:41.514Z,7.72
2022-11-02T06:58:36.978Z,7.80
2022-11-02T06:59:32.392Z,7.87
2022-11-02T07:00:28.283Z,7.88
2022-11-02T07:01:23.618Z,7.88
2022-11-02T07:02:18.865Z,7.88
2022-11-02T07:03:14.149Z,7.88
2022-11-02T07:04:09.574Z,7.90
2022-11-02T07:05:05.189Z,7.91
2022-11-02T07:06:00.389Z,7.94
2022-11-02T07:06:56.905Z,7.98
2022-11-02T07:07:52.318Z,8.04
2022-11-02T07:08:47.723Z,8.11
2022-11-02T07:09:43.234Z,8.18
2022-11-02T07:10:38.675Z,8.22
2022-11-02T07:11:34.062Z,8.28
2022-11-02T07:12:30.592Z,8.34
2022-11-02T07:13:26.003Z,8.38
2022-11-02T07:14:21.429Z,8.43
2022-11-02T07:15:16.876Z,8.46
2022-11-02T07:16:14.381Z,8.51
2022-11-02T07:17:09.563Z,8.53
2022-11-02T07:18:04.992Z,8.63
2022-11-02T07:19:00.399Z,9.19
2022-11-02T07:19:56.041Z,9.43
2022-11-02T07:20:51.405Z,9.70
2022-11-02T07:21:47.885Z,10.05
2022-11-02T07:22:42.290Z,10.36
2022-11-02T07:23:37.746Z,10.70
2022-11-02T07:24:33.341Z,10.93
2022-11-02T07:25:28.851Z,11.22
2022-11-02T07:26:24.271Z,11.42
2022-11-02T07:27:19.950Z,11.52
2022-11-02T07:28:15.450Z,11.51
2022-11-02T07:29:10.938Z,11.55
2022-11-02T07:30:05.963Z,11.51
2022-11-02T07:31:01.007Z,11.51
2022-11-02T07:31:56.094Z,11.79
2022-11-02T07:32:51.317Z,12.04
2022-11-02T07:33:46.406Z,12.17
2022-11-02T07:34:41.444Z,12.18
2022-11-02T07:35:36.454Z,11.94
2022-11-02T07:36:31.644Z,11.96
2022-11-02T07:37:26.611Z,12.16
2022-11-02T07:38:21.704Z,12.37
2022-11-02T07:39:18.194Z,12.51
2022-11-02T07:40:13.221Z,12.61
2022-11-02T07:41:08.242Z,12.74
2022-11-02T07:42:03.574Z,12.94
2022-11-02T07:42:58.873Z,13.04
2022-11-02T07:43:54.299Z,13.20
2022-11-02T07:44:49.913Z,13.31
2022-11-02T07:45:45.362Z,13.31
2022-11-02T07:46:40.759Z,13.37
2022-11-02T07:47:36.648Z,13.35
2022-11-02T07:48:31.818Z,13.20
2022-11-02T07:49:27.388Z,13.13
2022-11-02T07:50:22.712Z,13.07
2022-11-02T07:51:18.193Z,13.06
2022-11-02T07:52:13.695Z,13.04
2022-11-02T07:53:09.108Z,13.00
2022-11-02T07:54:04.532Z,13.14
2022-11-02T07:55:00.007Z,13.12
2022-11-02T07:55:55.046Z,13.13
2022-11-02T07:56:50.105Z,13.07
2022-11-02T07:57:45.215Z,12.89
2022-11-02T07:58:40.235Z,12.70
2022-11-02T07:59:35.392Z,12.69
2022-11-02T08:00:30.485Z,12.71
2022-11-02T08:01:25.565Z,13.06
2022-11-02T08:02:23.187Z,13.27
2022-11-02T08:03:18.494Z,13.51
2022-11-02T08:04:13.184Z,13.63
2022-11-02T08:05:08.190Z,13.55
2022-11-02T08:06:03.193Z,13.09
2022-11-02T08:06:58.247Z,12.70
2022-11-02T08:07:53.290Z,12.75
2022-11-02T08:08:48.342Z,13.22
2022-11-02T08:09:43.406Z,13.47
2022-11-02T08:10:40.464Z,13.75
2022-11-02T08:11:33.451Z,14.06
2022-11-02T08:12:28.555Z,14.15
2022-11-02T08:13:23.563Z,14.08
2022-11-02T08:14:18.921Z,14.36
2022-11-02T08:15:14.281Z,14.64
2022-11-02T08:16:09.689Z,14.58
2022-11-02T08:17:05.154Z,14.43
2022-11-02T08:18:00.588Z,14.38
2022-11-02T08:18:56.197Z,14.47
2022-11-02T08:19:51.815Z,14.60
2022-11-02T08:20:47.092Z,14.79
2022-11-02T08:21:42.526Z,14.79
2022-11-02T08:22:37.960Z,14.59
2022-11-02T08:23:33.383Z,14.62
2022-11-02T08:24:28.822Z,14.81
2022-11-02T08:25:24.491Z,14.75
2022-11-02T08:26:19.987Z,14.83
2022-11-02T08:27:15.487Z,15.13
2022-11-02T08:28:11.117Z,15.58
2022-11-02T08:29:06.574Z,15.80
2022-11-02T08:30:02.086Z,15.87
2022-11-02T08:30:57.522Z,15.75
2022-11-02T08:31:52.967Z,15.81
2022-11-02T08:32:51.504Z,15.85
2022-11-02T08:33:45.026Z,15.58
2022-11-02T08:34:39.128Z,15.62
2022-11-02T08:35:34.448Z,15.85
2022-11-02T08:36:29.382Z,15.71
2022-11-02T08:37:24.261Z,15.60
2022-11-02T08:38:19.291Z,15.40
2022-11-02T08:39:18.599Z,15.44
2022-11-02T08:40:09.455Z,15.09
2022-11-02T08:41:05.890Z,14.44
2022-11-02T08:42:01.093Z,14.14
2022-11-02T08:42:56.171Z,13.78
2022-11-02T08:43:51.167Z,13.50
2022-11-02T08:44:46.820Z,13.43
2022-11-02T08:46:13.383Z,13.26
2022-11-02T08:46:38.636Z,13.08
2022-11-02T08:47:33.065Z,12.99
2022-11-02T08:48:28.711Z,12.77
2022-11-02T08:49:23.902Z,12.66
2022-11-02T08:50:19.395Z,12.65
2022-11-02T08:51:14.955Z,12.65
2022-11-02T08:52:10.424Z,12.73
2022-11-02T08:53:06.033Z,13.18
2022-11-02T08:54:01.394Z,13.08
2022-11-02T08:54:56.956Z,12.97
2022-11-02T08:55:52.403Z,12.88
2022-11-02T08:56:48.080Z,12.74
2022-11-02T08:57:43.126Z,12.61
2022-11-02T08:58:38.171Z,12.47
2022-11-02T08:59:33.264Z,12.46
2022-11-02T09:00:28.336Z,12.43
2022-11-02T09:01:23.457Z,12.36
2022-11-02T09:02:18.489Z,12.39
2022-11-02T09:03:13.410Z,12.63
2022-11-02T09:04:10.594Z,13.13
2022-11-02T09:05:05.696Z,13.95
2022-11-02T09:06:00.792Z,14.67
2022-11-02T09:06:55.955Z,14.92
2022-11-02T09:07:50.999Z,14.70
2022-11-02T09:08:46.071Z,14.87
2022-11-02T09:09:41.162Z,15.06
2022-11-02T09:10:36.287Z,15.02
2022-11-02T09:11:31.357Z,14.86
2022-11-02T09:12:26.503Z,14.73
2022-11-02T09:13:21.440Z,14.34
2022-11-02T09:14:16.644Z,14.33
2022-11-02T09:15:11.547Z,14.26
2022-11-02T09:16:06.609Z,14.03
2022-11-02T09:17:01.892Z,14.00
2022-11-02T09:17:57.672Z,14.20
2022-11-02T09:18:53.169Z,14.10
2022-11-02T09:19:48.683Z,14.07
2022-11-02T09:20:44.171Z,14.18
2022-11-02T09:21:39.648Z,14.17
2022-11-02T09:22:35.473Z,14.12
2022-11-02T09:23:30.816Z,14.11
2022-11-02T09:24:26.276Z,14.15
2022-11-02T09:25:21.899Z,14.09
2022-11-02T09:26:17.358Z,13.86
2022-11-02T09:27:12.349Z,13.77
2022-11-02T09:28:07.766Z,13.65
2022-11-02T09:29:02.497Z,13.64
2022-11-02T09:29:57.590Z,13.54
2022-11-02T09:30:52.648Z,13.43
2022-11-02T09:31:48.428Z,13.52
2022-11-02T09:32:42.826Z,13.73
2022-11-02T09:33:39.865Z,13.97
2022-11-02T09:34:34.672Z,14.13
2022-11-02T09:35:29.721Z,14.21
2022-11-02T09:36:24.783Z,14.40
2022-11-02T09:37:19.861Z,14.53
2022-11-02T09:38:15.044Z,14.59
2022-11-02T09:39:09.976Z,14.55
2022-11-02T09:40:05.094Z,14.51
2022-11-02T09:41:00.990Z,14.26
2022-11-02T09:41:56.451Z,14.17
2022-11-02T09:42:51.922Z,14.11
2022-11-02T09:43:47.532Z,14.07
2022-11-02T09:44:42.852Z,14.00
2022-11-02T09:45:38.312Z,13.83
2022-11-02T09:46:33.906Z,13.84
2022-11-02T09:48:28.653Z,13.74
2022-11-02T09:49:20.139Z,13.74
2022-11-02T09:50:15.251Z,13.77
2022-11-02T09:51:10.275Z,13.80
2022-11-02T09:52:05.434Z,13.83
2022-11-02T09:53:00.431Z,13.86
2022-11-02T09:53:55.535Z,13.89
2022-11-02T09:54:50.701Z,13.96
2022-11-02T09:55:45.724Z,14.01
2022-11-02T09:56:42.944Z,14.06
2022-11-02T09:57:38.005Z,14.05
2022-11-02T09:58:33.100Z,14.05
2022-11-02T09:59:28.301Z,14.10
2022-11-02T10:00:23.357Z,14.17
2022-11-02T10:01:18.433Z,14.23
2022-11-02T10:02:13.630Z,14.29
2022-11-02T10:03:08.804Z,14.35
2022-11-02T10:04:04.187Z,14.41
2022-11-02T10:04:59.658Z,14.47
2022-11-02T10:05:55.185Z,14.53
2022-11-02T10:06:50.794Z,14.56
2022-11-02T10:07:46.121Z,14.58
2022-11-02T10:08:41.617Z,14.42
2022-11-02T10:09:37.429Z,14.46
2022-11-02T10:10:32.754Z,14.52
2022-11-02T10:11:28.179Z,14.59
2022-11-02T10:12:23.553Z,14.64
2022-11-02T10:13:19.133Z,14.62
2022-11-02T10:14:14.414Z,14.58
2022-11-02T10:15:11.214Z,14.55
2022-11-02T10:16:06.694Z,14.57
2022-11-02T10:17:02.201Z,14.58
2022-11-02T10:17:57.646Z,14.71
2022-11-02T10:18:53.231Z,14.90
2022-11-02T10:19:50.951Z,15.28
2022-11-02T10:20:46.290Z,15.62
2022-11-02T10:21:41.802Z,15.79
2022-11-02T10:22:37.423Z,16.00
2022-11-02T10:23:32.880Z,15.96
2022-11-02T10:24:28.430Z,15.86
2022-11-02T10:25:23.810Z,15.68
2022-11-02T10:26:19.277Z,15.63
2022-11-02T10:27:14.886Z,15.55
2022-11-02T10:28:10.440Z,15.57
2022-11-02T10:29:06.026Z,15.54
2022-11-02T10:30:01.652Z,15.50
2022-11-02T10:30:57.013Z,15.48
2022-11-02T10:31:52.505Z,15.53
2022-11-02T10:32:48.126Z,15.78
2022-11-02T10:33:43.608Z,15.96
2022-11-02T10:34:39.108Z,16.01
2022-11-02T10:35:51.030Z,16.01
2022-11-02T10:36:31.278Z,15.98
2022-11-02T10:37:25.809Z,16.07
2022-11-02T10:38:21.423Z,16.20
2022-11-02T10:39:16.929Z,16.31
2022-11-02T10:40:12.543Z,16.40
2022-11-02T10:41:08.018Z,16.43
2022-11-02T10:42:06.513Z,16.36
2022-11-02T10:43:01.995Z,16.31
2022-11-02T10:43:57.464Z,16.26
2022-11-02T10:44:52.970Z,16.04
2022-11-02T10:45:48.616Z,15.91
2022-11-02T10:46:43.832Z,15.88
2022-11-02T10:47:38.913Z,15.85
2022-11-02T10:48:33.975Z,15.87
2022-11-02T10:49:29.282Z,15.77
2022-11-02T10:50:24.187Z,15.78
2022-11-02T10:51:19.555Z,15.71
2022-11-02T10:52:14.257Z,15.52
2022-11-02T10:53:35.129Z,15.45
2022-11-02T10:54:59.470Z,15.48
2022-11-02T10:55:54.537Z,15.53
2022-11-02T10:56:49.958Z,15.58
2022-11-02T10:57:45.418Z,15.56
2022-11-02T10:58:40.886Z,15.52
2022-11-02T10:59:36.393Z,15.52
2022-11-02T11:00:31.933Z,15.55
2022-11-02T11:01:27.826Z,15.49
2022-11-02T11:02:22.406Z,15.47
2022-11-02T11:03:17.468Z,15.49
2022-11-02T11:04:12.557Z,15.43
2022-11-02T11:05:08.862Z,15.46
2022-11-02T11:06:03.932Z,15.44
2022-11-02T11:06:59.303Z,15.33
2022-11-02T11:07:54.126Z,15.35
2022-11-02T11:08:49.177Z,15.29
2022-11-02T11:09:46.650Z,15.19
2022-11-02T11:10:39.295Z,15.15
2022-11-02T11:11:34.444Z,15.17
2022-11-02T11:12:29.567Z,15.23
2022-11-02T11:16:14.739Z,15.08
2022-11-02T11:19:50.958Z,15.12
2022-11-02T11:20:45.037Z,15.13
2022-11-02T11:21:40.162Z,15.15
2022-11-02T11:22:35.115Z,15.12
2022-11-02T11:23:30.187Z,15.08
2022-11-02T11:24:25.277Z,15.12
2022-11-02T11:25:25.862Z,15.14
2022-11-02T11:26:16.407Z,15.10
2022-11-02T11:27:10.489Z,15.07
2022-11-02T11:28:05.651Z,15.09
2022-11-02T11:29:00.592Z,15.15
2022-11-02T11:29:55.735Z,15.11
2022-11-02T11:31:06.122Z,15.11
2022-11-02T11:31:47.301Z,15.09
2022-11-02T11:32:41.932Z,15.15
2022-11-02T11:33:37.376Z,15.19
2022-11-02T11:34:33.002Z,15.18
2022-11-02T11:35:28.700Z,15.19
2022-11-02T11:37:19.466Z,15.14
2022-11-02T11:38:14.807Z,15.03
2022-11-02T11:39:09.643Z,15.02
2022-11-02T11:40:04.736Z,15.06
2022-11-02T11:40:59.828Z,15.10
2022-11-02T11:41:54.916Z,15.13
2022-11-02T11:42:49.987Z,15.17
2022-11-02T11:43:45.051Z,15.18
2022-11-02T11:44:40.302Z,15.22
2022-11-02T11:45:35.224Z,15.25
2022-11-02T11:46:30.366Z,15.33
2022-11-02T11:47:25.449Z,15.32
2022-11-02T11:48:20.693Z,15.27
2022-11-02T11:49:15.721Z,15.31
2022-11-02T11:50:15.297Z,15.43
2022-11-02T11:51:08.864Z,15.44
2022-11-02T11:52:03.295Z,15.36
2022-11-02T11:52:58.442Z,15.38
2022-11-02T11:53:55.927Z,15.40
2022-11-02T11:54:49.599Z,15.39
2022-11-02T11:55:44.835Z,15.22
2022-11-02T11:56:40.368Z,15.13
2022-11-02T11:58:31.441Z,15.12
2022-11-02T11:59:27.116Z,15.09
2022-11-02T12:00:22.651Z,15.10
2022-11-02T12:01:18.116Z,15.13
2022-11-02T12:02:15.068Z,15.15
2022-11-02T12:03:09.194Z,15.21
2022-11-02T12:04:04.370Z,15.27
2022-11-02T12:04:59.741Z,15.17
2022-11-02T12:05:54.679Z,15.05
2022-11-02T12:06:49.647Z,14.97
2022-11-02T12:07:44.709Z,14.87
2022-11-02T12:08:40.191Z,14.83
2022-11-02T12:09:35.179Z,14.88
2022-11-02T12:10:29.999Z,14.92
2022-11-02T12:11:25.077Z,14.88
2022-11-02T12:12:20.118Z,14.93
2022-11-02T12:13:15.175Z,15.03
2022-11-02T12:14:11.658Z,15.00
2022-11-02T12:15:07.271Z,14.98
2022-11-02T12:16:01.807Z,15.01
2022-11-02T12:16:56.870Z,15.01
2022-11-02T12:17:52.365Z,14.87